createdAt,value
2018-07-10T00:01:28.482Z,97102.24
2018-07-10T00:03:20.831Z,97111.77
2018-07-10T00:07:17.708Z,97111.98
2018-07-10T00:09:17.351Z,97106.97
2018-07-10T00:11:56.630Z,97117.94
2018-07-10T00:13:32.362Z,97121.13
2018-07-10T00:15:16.676Z,97120.66
2018-07-10T00:16:56.680Z,97123.53
2018-07-10T00:18:36.746Z,97116.48
2018-07-10T00:20:17.620Z,97120.14
2018-07-10T00:21:53.945Z,97121.47
2018-07-10T00:23:30.162Z,97117.75
2018-07-10T00:25:07.220Z,97127.52
2018-07-10T00:26:44.605Z,97125.95
2018-07-10T00:28:23.109Z,97123.02
2018-07-10T00:30:00.151Z,97115.23
2018-07-10T00:31:37.107Z,97110.80
2018-07-10T00:33:13.133Z,97116.61
2018-07-10T00:34:53.381Z,97111.25
2018-07-10T00:36:29.362Z,97112.33
2018-07-10T00:38:16.131Z,97110.73
2018-07-10T00:39:53.676Z,97109.36
2018-07-10T00:41:32.539Z,97109.81
2018-07-10T00:43:13.429Z,97103.30
2018-07-10T00:44:52.142Z,97099.28
2018-07-10T00:46:52.230Z,97099.41
2018-07-10T00:48:46.532Z,97094.38
2018-07-10T00:50:23.702Z,97096.19
2018-07-10T00:51:59.186Z,97088.44
2018-07-10T00:53:35.491Z,97092.08
2018-07-10T00:55:11.036Z,97092.08
2018-07-10T00:56:47.675Z,97094.08
2018-07-10T00:58:26.458Z,97088.03
2018-07-10T01:00:05.502Z,97087.87
2018-07-10T01:01:42.979Z,97088.31
2018-07-10T01:03:18.310Z,97085.41
2018-07-10T01:04:55.480Z,97088.92
2018-07-10T01:06:34.898Z,97084.65
2018-07-10T01:08:10.525Z,97087.55
2018-07-10T01:09:46.525Z,97086.30
2018-07-10T01:11:22.367Z,97085.28
2018-07-10T01:13:01.228Z,97084.52
2018-07-10T01:14:36.837Z,97079.20
2018-07-10T01:16:14.622Z,97089.27
2018-07-10T01:17:50.241Z,97086.94
2018-07-10T01:19:26.810Z,97086.53
2018-07-10T01:21:02.529Z,97082.58
2018-07-10T01:22:40.718Z,97083.15
2018-07-10T01:24:20.808Z,97069.72
2018-07-10T01:26:05.394Z,97068.48
2018-07-10T01:27:41.579Z,97070.14
2018-07-10T01:29:22.722Z,97075.17
2018-07-10T01:30:58.351Z,97077.47
2018-07-10T01:32:36.451Z,97079.16
2018-07-10T01:34:13.165Z,97075.33
2018-07-10T01:35:48.346Z,97076.22
2018-07-10T01:37:24.036Z,97072.40
2018-07-10T01:39:00.180Z,97074.09
2018-07-10T01:40:35.884Z,97073.60
2018-07-10T01:42:11.195Z,97071.47
2018-07-10T01:43:48.198Z,97072.84
2018-07-10T01:45:24.481Z,97064.45
2018-07-10T01:46:59.826Z,97064.61
2018-07-10T01:48:36.019Z,97064.14
2018-07-10T01:50:12.341Z,97065.98
2018-07-10T01:51:47.535Z,97068.13
2018-07-10T01:53:22.776Z,97066.91
2018-07-10T01:54:58.202Z,97063.41
2018-07-10T01:56:34.750Z,97056.39
2018-07-10T01:58:11.221Z,97061.59
2018-07-10T01:59:46.593Z,97065.70
2018-07-10T02:01:21.443Z,97058.43
2018-07-10T02:02:56.303Z,97055.78
2018-07-10T02:04:32.090Z,97057.92
2018-07-10T02:06:07.063Z,97055.62
2018-07-10T02:09:44.276Z,97057.31
2018-07-10T02:11:25.204Z,97052.88
2018-07-10T02:13:02.354Z,97046.80
2018-07-10T02:14:41.374Z,97048.45
2018-07-10T02:16:33.822Z,97047.94
2018-07-10T02:18:11.775Z,97053.41
2018-07-10T02:19:51.045Z,97053.73
2018-07-10T02:22:00.926Z,97053.33
2018-07-10T02:30:25.632Z,97049.54
2018-07-10T02:32:01.539Z,97044.98
2018-07-10T02:33:37.071Z,97047.08
2018-07-10T02:35:13.503Z,97041.56
2018-07-10T02:36:48.774Z,97046.12
2018-07-10T02:38:24.512Z,97039.11
2018-07-10T02:40:01.078Z,97040.79
2018-07-10T02:41:36.841Z,97040.95
2018-07-10T02:43:11.964Z,97043.82
2018-07-10T02:44:46.972Z,97043.05
2018-07-10T02:46:22.295Z,97042.32
2018-07-10T02:47:57.562Z,97040.31
2018-07-10T02:49:33.028Z,97043.66
2018-07-10T02:51:08.797Z,97045.30
2018-07-10T02:52:44.938Z,97042.00
2018-07-10T02:54:22.812Z,97044.86
2018-07-10T02:55:57.806Z,97038.05
2018-07-10T02:57:33.368Z,97039.71
2018-07-10T02:59:08.580Z,97047.92
2018-07-10T03:00:43.744Z,97040.30
2018-07-10T03:02:26.798Z,97038.05
2018-07-10T03:04:02.044Z,97037.73
2018-07-10T03:05:37.757Z,97034.38
2018-07-10T03:07:15.893Z,97035.83
2018-07-10T03:08:51.021Z,97035.83
2018-07-10T03:10:26.395Z,97038.13
2018-07-10T03:12:04.158Z,97041.19
2018-07-10T03:13:40.409Z,97040.30
2018-07-10T03:15:16.890Z,97045.58
2018-07-10T03:16:52.296Z,97043.17
2018-07-10T03:18:28.448Z,97043.61
2018-07-10T03:20:06.544Z,97050.61
2018-07-10T03:21:41.790Z,97051.39
2018-07-10T03:23:16.833Z,97050.13
2018-07-10T03:24:52.060Z,97051.17
2018-07-10T03:26:27.251Z,97045.37
2018-07-10T03:28:02.820Z,97045.85
2018-07-10T03:29:38.268Z,97037.91
2018-07-10T03:31:15.928Z,97036.93
2018-07-10T03:32:51.298Z,97033.31
2018-07-10T03:34:27.286Z,97035.28
2018-07-10T03:36:06.619Z,97036.56
2018-07-10T03:37:44.311Z,97035.78
2018-07-10T03:39:19.441Z,97028.94
2018-07-10T03:40:55.275Z,97028.34
2018-07-10T03:42:31.263Z,97024.98
2018-07-10T03:44:07.525Z,97023.80
2018-07-10T03:45:43.947Z,97022.20
2018-07-10T03:47:20.736Z,97019.75
2018-07-10T03:48:56.972Z,97020.52
2018-07-10T03:50:35.704Z,97022.33
2018-07-10T03:52:18.590Z,97026.58
2018-07-10T03:53:53.860Z,97021.72
2018-07-10T03:55:33.353Z,97023.53
2018-07-10T03:57:09.779Z,97026.31
2018-07-10T03:58:50.125Z,97025.83
2018-07-10T04:00:28.342Z,97029.77
2018-07-10T04:02:07.793Z,97036.66
2018-07-10T04:05:38.065Z,97036.45
2018-07-10T04:07:13.220Z,97032.23
2018-07-10T04:08:52.154Z,97029.42
2018-07-10T04:10:32.334Z,97033.97
2018-07-10T04:12:07.720Z,97026.03
2018-07-10T04:13:44.291Z,97030.02
2018-07-10T04:15:20.399Z,97030.92
2018-07-10T04:16:56.028Z,97032.78
2018-07-10T04:18:34.441Z,97031.50
2018-07-10T04:20:11.186Z,97037.43
2018-07-10T04:21:54.696Z,97025.31
2018-07-10T04:23:39.498Z,97024.54
2018-07-10T04:25:14.933Z,97032.70
2018-07-10T04:27:29.128Z,97033.97
2018-07-10T04:29:12.005Z,97035.89
2018-07-10T04:30:58.936Z,97038.48
2018-07-10T04:32:35.173Z,97037.09
2018-07-10T04:34:11.439Z,97036.34
2018-07-10T04:35:47.194Z,97032.55
2018-07-10T04:37:34.736Z,97031.34
2018-07-10T04:39:36.532Z,97032.31
2018-07-10T04:41:26.113Z,97029.58
2018-07-10T04:43:02.615Z,97023.70
2018-07-10T04:44:37.978Z,97026.00
2018-07-10T04:46:14.859Z,97032.41
2018-07-10T04:48:00.845Z,97030.88
2018-07-10T04:49:44.262Z,97020.56
2018-07-10T04:51:29.743Z,97018.75
2018-07-10T04:53:08.690Z,97017.70
2018-07-10T04:54:48.581Z,97015.03
2018-07-10T04:56:24.761Z,97015.48
2018-07-10T04:58:07.940Z,97010.28
2018-07-10T04:59:43.113Z,97017.14
2018-07-10T05:01:18.205Z,97015.92
2018-07-10T05:02:54.214Z,97016.38
2018-07-10T05:04:29.972Z,97013.95
2018-07-10T05:06:10.363Z,97016.21
2018-07-10T05:07:45.916Z,97016.33
2018-07-10T05:09:21.615Z,97014.48
2018-07-10T05:11:01.520Z,97010.86
2018-07-10T05:12:37.104Z,97012.06
2018-07-10T05:14:13.025Z,97014.52
2018-07-10T05:15:53.117Z,97021.05
2018-07-10T05:17:29.154Z,97014.23
2018-07-10T05:19:05.130Z,97016.12
2018-07-10T05:20:44.839Z,97009.42
2018-07-10T05:22:21.322Z,97011.72
2018-07-10T05:24:11.543Z,97009.55
2018-07-10T05:25:55.125Z,97004.67
2018-07-10T05:27:33.334Z,97011.59
2018-07-10T05:29:13.620Z,97008.38
2018-07-10T05:30:55.161Z,97006.78
2018-07-10T05:32:31.598Z,97007.42
2018-07-10T05:34:09.210Z,97009.45
2018-07-10T05:35:45.539Z,97012.30
2018-07-10T05:37:35.945Z,97006.88
2018-07-10T05:39:11.360Z,97008.09
2018-07-10T05:40:46.699Z,97014.02
2018-07-10T05:42:21.941Z,97017.36
2018-07-10T05:44:02.824Z,97014.47
2018-07-10T05:45:39.690Z,97017.36
2018-07-10T05:47:14.989Z,97011.12
2018-07-10T05:49:01.373Z,97010.67
2018-07-10T05:50:37.340Z,97009.62
2018-07-10T05:52:13.593Z,97016.92
2018-07-10T05:53:50.983Z,97010.22
2018-07-10T05:55:30.473Z,97015.07
2018-07-10T05:57:08.961Z,97012.61
2018-07-10T05:58:47.004Z,97007.73
2018-07-10T06:00:23.309Z,97006.08
2018-07-10T06:01:59.918Z,97005.80
2018-07-10T06:03:36.469Z,97005.05
2018-07-10T06:05:12.319Z,97013.63
2018-07-10T06:06:49.374Z,97010.20
2018-07-10T06:08:25.426Z,97006.28
2018-07-10T06:10:03.283Z,96998.13
2018-07-10T06:11:38.717Z,96998.87
2018-07-10T06:13:14.639Z,96997.03
2018-07-10T06:14:52.376Z,97003.91
2018-07-10T06:16:30.284Z,97003.73
2018-07-10T06:18:06.727Z,97007.54
2018-07-10T06:19:42.315Z,96990.34
2018-07-10T06:21:22.235Z,96990.97
2018-07-10T06:22:58.646Z,96996.30
2018-07-10T06:24:36.884Z,97000.87
2018-07-10T06:26:14.075Z,96996.59
2018-07-10T06:28:02.413Z,96989.58
2018-07-10T06:30:19.549Z,96987.73
2018-07-10T06:35:05.114Z,96986.68
2018-07-10T06:36:48.775Z,96988.55
2018-07-10T06:38:28.116Z,96983.85
2018-07-10T06:40:12.202Z,96991.83
2018-07-10T06:42:07.490Z,96987.58
2018-07-10T06:43:50.548Z,96991.71
2018-07-10T06:45:26.403Z,96989.41
2018-07-10T06:47:02.702Z,96983.33
2018-07-10T06:48:44.153Z,96981.03
2018-07-10T06:50:23.238Z,96977.66
2018-07-10T06:54:13.863Z,96986.81
2018-07-10T06:58:00.126Z,96982.41
2018-07-10T06:59:46.742Z,96979.78
2018-07-10T07:01:24.517Z,96985.72
2018-07-10T07:05:05.778Z,96978.89
2018-07-10T07:06:43.448Z,96986.53
2018-07-10T07:08:21.155Z,96981.02
2018-07-10T07:10:01.381Z,96982.69
2018-07-10T07:11:41.545Z,96989.20
2018-07-10T07:13:18.841Z,96986.48
2018-07-10T07:14:56.544Z,96986.77
2018-07-10T07:16:34.512Z,96981.27
2018-07-10T07:18:19.049Z,96978.05
2018-07-10T07:19:58.509Z,96982.55
2018-07-10T07:21:35.376Z,96972.87
2018-07-10T07:23:13.783Z,96975.27
2018-07-10T07:24:50.226Z,96958.89
2018-07-10T07:26:43.435Z,96954.81
2018-07-10T07:28:39.831Z,96952.91
2018-07-10T07:30:23.662Z,96952.08
2018-07-10T07:32:00.124Z,96951.67
2018-07-10T07:33:36.675Z,96947.18
2018-07-10T07:35:13.426Z,96944.91
2018-07-10T07:36:49.582Z,96950.55
2018-07-10T07:38:33.765Z,96947.36
2018-07-10T07:40:16.085Z,96941.09
2018-07-10T07:41:54.912Z,96949.80
2018-07-10T07:43:35.575Z,96942.58
2018-07-10T07:45:18.646Z,96951.00
2018-07-10T07:46:57.836Z,96945.75
2018-07-10T07:48:35.693Z,96943.63
2018-07-10T07:50:13.312Z,96948.58
2018-07-10T07:51:53.378Z,96946.28
2018-07-10T07:53:33.313Z,96943.41
2018-07-10T07:55:09.426Z,96948.09
2018-07-10T07:56:48.121Z,96953.68
2018-07-10T07:58:25.439Z,96962.33
2018-07-10T08:00:01.294Z,96963.39
2018-07-10T08:01:37.761Z,96953.55
2018-07-10T08:03:15.734Z,96952.11
2018-07-10T08:04:53.803Z,96950.02
2018-07-10T08:06:33.457Z,96952.08
2018-07-10T08:08:16.115Z,96954.38
2018-07-10T08:10:19.221Z,96951.23
2018-07-10T08:12:01.272Z,96947.05
2018-07-10T08:13:38.255Z,96951.16
2018-07-10T08:15:20.668Z,96952.13
2018-07-10T08:17:02.368Z,96948.62
2018-07-10T08:18:40.161Z,96954.63
2018-07-10T08:20:17.653Z,96955.26
2018-07-10T08:21:58.577Z,96951.63
2018-07-10T08:23:34.696Z,96955.86
2018-07-10T08:25:10.677Z,96950.67
2018-07-10T08:26:50.325Z,96946.13
2018-07-10T08:28:30.854Z,96952.94
2018-07-10T08:30:14.032Z,96948.35
2018-07-10T08:31:51.254Z,96953.08
2018-07-10T08:33:28.616Z,96942.98
2018-07-10T08:35:05.573Z,96943.92
2018-07-10T08:36:41.819Z,96943.07
2018-07-10T08:38:26.531Z,96944.82
2018-07-10T08:40:04.150Z,96946.42
2018-07-10T08:41:46.041Z,96943.37
2018-07-10T08:43:21.979Z,96940.00
2018-07-10T08:44:58.232Z,96942.45
2018-07-10T08:46:35.184Z,96941.70
2018-07-10T08:48:12.580Z,96939.97
2018-07-10T08:49:49.087Z,96934.11
2018-07-10T08:53:36.055Z,96929.39
2018-07-10T08:55:15.508Z,96928.45
2018-07-10T08:56:53.520Z,96926.78
2018-07-10T08:58:33.715Z,96925.20
2018-07-10T09:00:22.352Z,96933.12
2018-07-10T09:01:57.795Z,96929.92
2018-07-10T09:03:35.542Z,96925.47
2018-07-10T09:05:14.265Z,96918.39
2018-07-10T09:06:55.620Z,96920.92
2018-07-10T09:08:43.417Z,96921.81
2018-07-10T09:10:20.978Z,96922.26
2018-07-10T09:11:57.596Z,96918.16
2018-07-10T09:13:35.003Z,96926.70
2018-07-10T09:15:16.998Z,96922.80
2018-07-10T09:16:54.471Z,96918.70
2018-07-10T09:18:31.531Z,96913.87
2018-07-10T09:20:08.980Z,96916.01
2018-07-10T09:21:56.562Z,96919.14
2018-07-10T09:23:34.952Z,96917.00
2018-07-10T09:27:01.925Z,96920.19
2018-07-10T09:28:42.976Z,96921.14
2018-07-10T09:30:21.786Z,96929.75
2018-07-10T09:31:58.102Z,96933.62
2018-07-10T09:33:34.830Z,96930.14
2018-07-10T09:35:11.596Z,96927.45
2018-07-10T09:36:48.804Z,96931.75
2018-07-10T09:38:24.920Z,96935.88
2018-07-10T09:40:06.310Z,96932.05
2018-07-10T09:41:48.653Z,96927.16
2018-07-10T09:43:27.645Z,96936.63
2018-07-10T09:45:08.141Z,96933.72
2018-07-10T09:46:44.878Z,96934.94
2018-07-10T09:48:25.293Z,96933.08
2018-07-10T09:50:03.810Z,96929.27
2018-07-10T09:51:42.652Z,96934.11
2018-07-10T09:53:19.572Z,96926.14
2018-07-10T09:54:57.359Z,96928.15
2018-07-10T09:56:34.589Z,96925.41
2018-07-10T09:58:11.504Z,96923.55
2018-07-10T09:59:49.856Z,96925.07
2018-07-10T10:01:33.255Z,96931.06
2018-07-10T10:03:14.864Z,96935.06
2018-07-10T10:05:20.387Z,96927.89
2018-07-10T10:06:56.997Z,96932.51
2018-07-10T10:08:35.090Z,96935.86
2018-07-10T10:10:11.123Z,96931.77
2018-07-10T10:11:48.347Z,96933.59
2018-07-10T10:13:24.938Z,96930.67
2018-07-10T10:15:09.451Z,96930.23
2018-07-10T10:16:49.343Z,96931.45
2018-07-10T10:18:28.479Z,96932.97
2018-07-10T10:20:08.187Z,96929.02
2018-07-10T10:21:51.609Z,96931.46
2018-07-10T10:23:27.529Z,96931.02
2018-07-10T10:25:11.439Z,96932.69
2018-07-10T10:26:55.806Z,96927.80
2018-07-10T10:28:34.592Z,96927.34
2018-07-10T10:30:13.094Z,96927.95
2018-07-10T10:31:52.226Z,96918.03
2018-07-10T10:33:31.620Z,96909.34
2018-07-10T10:35:16.548Z,96908.07
2018-07-10T10:36:53.992Z,96908.66
2018-07-10T10:38:29.612Z,96906.24
2018-07-10T10:40:11.882Z,96899.19
2018-07-10T10:41:51.112Z,96894.23
2018-07-10T10:43:34.326Z,96891.25
2018-07-10T10:45:12.360Z,96888.17
2018-07-10T10:46:48.939Z,96889.11
2018-07-10T10:48:26.062Z,96885.66
2018-07-10T10:50:03.037Z,96886.67
2018-07-10T10:51:39.347Z,96888.41
2018-07-10T10:53:14.417Z,96888.05
2018-07-10T10:54:52.283Z,96888.49
2018-07-10T10:56:28.487Z,96881.91
2018-07-10T10:58:05.670Z,96879.47
2018-07-10T10:59:42.518Z,96879.53
2018-07-10T11:01:22.959Z,96879.23
2018-07-10T11:02:58.871Z,96881.55
2018-07-10T11:04:37.354Z,96879.92
2018-07-10T11:06:14.516Z,96884.69
2018-07-10T11:07:51.007Z,96876.64
2018-07-10T11:09:28.092Z,96878.01
2018-07-10T11:11:06.544Z,96878.92
2018-07-10T11:12:44.006Z,96876.66
2018-07-10T11:14:20.445Z,96878.52
2018-07-10T11:16:01.628Z,96874.09
2018-07-10T11:17:55.289Z,96871.66
2018-07-10T11:19:44.701Z,96876.09
2018-07-10T11:22:29.193Z,96882.05
2018-07-10T11:24:05.734Z,96875.36
2018-07-10T11:25:48.124Z,96875.33
2018-07-10T11:27:37.665Z,96869.39
2018-07-10T11:29:15.376Z,96875.64
2018-07-10T11:30:57.453Z,96870.61
2018-07-10T11:32:37.722Z,96863.90
2018-07-10T11:34:15.350Z,96867.69
2018-07-10T11:35:53.595Z,96860.80
2018-07-10T11:37:29.737Z,96862.50
2018-07-10T11:39:14.055Z,96866.92
2018-07-10T11:40:51.206Z,96861.44
2018-07-10T11:42:30.370Z,96863.88
2018-07-10T11:44:14.036Z,96857.78
2018-07-10T11:45:50.691Z,96857.77
2018-07-10T11:47:26.304Z,96859.30
2018-07-10T11:49:03.950Z,96862.78
2018-07-10T11:50:40.287Z,96858.20
2018-07-10T11:52:17.801Z,96858.36
2018-07-10T11:55:02.372Z,96854.08
2018-07-10T11:56:45.384Z,96859.70
2018-07-10T11:58:22.539Z,96858.97
2018-07-10T12:00:01.049Z,96860.98
2018-07-10T12:01:37.066Z,96864.77
2018-07-10T12:03:12.990Z,96861.73
2018-07-10T12:04:54.735Z,96858.69
2018-07-10T12:06:31.886Z,96860.37
2018-07-10T12:08:14.130Z,96861.13
2018-07-10T12:10:00.835Z,96863.57
2018-07-10T12:11:37.507Z,96852.45
2018-07-10T12:13:17.450Z,96858.25
2018-07-10T12:14:59.847Z,96854.42
2018-07-10T12:16:37.116Z,96857.47
2018-07-10T12:18:16.244Z,96848.59
2018-07-10T12:19:54.426Z,96851.67
2018-07-10T12:21:32.289Z,96855.91
2018-07-10T12:23:14.923Z,96852.56
2018-07-10T12:24:51.620Z,96852.06
2018-07-10T12:26:29.229Z,96854.05
2018-07-10T12:29:55.120Z,96850.05
2018-07-10T12:31:34.166Z,96846.27
2018-07-10T12:34:55.839Z,96843.66
2018-07-10T12:36:35.027Z,96845.05
2018-07-10T12:38:12.370Z,96843.17
2018-07-10T12:39:49.324Z,96845.31
2018-07-10T12:41:27.910Z,96842.77
2018-07-10T12:43:06.749Z,96837.41
2018-07-10T12:44:43.624Z,96838.20
2018-07-10T12:46:19.276Z,96840.94
2018-07-10T12:47:56.679Z,96838.09
2018-07-10T12:49:39.317Z,96831.10
2018-07-10T12:51:21.018Z,96832.17
2018-07-10T12:53:04.445Z,96839.97
2018-07-10T12:54:42.746Z,96826.33
2018-07-10T12:56:24.648Z,96831.20
2018-07-10T12:58:05.981Z,96832.39
2018-07-10T12:59:48.756Z,96829.64
2018-07-10T13:01:31.231Z,96823.88
2018-07-10T13:03:12.733Z,96825.20
2018-07-10T13:04:53.559Z,96819.77
2018-07-10T13:08:20.515Z,96815.71
2018-07-10T13:09:59.459Z,96809.02
2018-07-10T13:11:38.519Z,96801.31
2018-07-10T13:15:03.212Z,96806.42
2018-07-10T13:16:41.225Z,96809.16
2018-07-10T13:18:51.106Z,96815.17
2018-07-10T13:20:29.221Z,96810.96
2018-07-10T13:22:07.133Z,96818.09
2018-07-10T13:23:45.077Z,96811.76
2018-07-10T13:25:25.373Z,96808.95
2018-07-10T13:27:08.266Z,96807.77
2018-07-10T13:28:45.126Z,96812.23
2018-07-10T13:30:20.547Z,96818.16
2018-07-10T13:31:58.083Z,96809.82
2018-07-10T13:33:34.939Z,96809.29
2018-07-10T13:35:10.559Z,96797.06
2018-07-10T13:37:04.008Z,96806.03
2018-07-10T13:38:42.747Z,96813.01
2018-07-10T13:40:19.689Z,96804.91
2018-07-10T13:41:55.706Z,96803.92
2018-07-10T13:43:32.586Z,96801.66
2018-07-10T13:45:08.705Z,96802.55
2018-07-10T13:46:45.015Z,96802.00
2018-07-10T13:48:23.601Z,96805.30
2018-07-10T13:50:00.175Z,96805.59
2018-07-10T13:51:41.274Z,96807.58
2018-07-10T13:53:17.634Z,96802.17
2018-07-10T13:54:55.993Z,96788.12
2018-07-10T13:56:33.536Z,96795.91
2018-07-10T13:58:21.325Z,96785.20
2018-07-10T13:59:58.311Z,96790.26
2018-07-10T14:01:35.118Z,96787.13
2018-07-10T14:03:10.544Z,96787.88
2018-07-10T14:04:48.823Z,96789.52
2018-07-10T14:06:27.341Z,96789.05
2018-07-10T14:08:04.595Z,96785.37
2018-07-10T14:09:44.147Z,96791.03
2018-07-10T14:11:26.700Z,96789.37
2018-07-10T14:14:48.629Z,96781.56
2018-07-10T14:16:26.652Z,96775.27
2018-07-10T14:18:09.219Z,96784.23
2018-07-10T14:19:46.289Z,96788.84
2018-07-10T14:21:38.706Z,96773.73
2018-07-10T14:23:15.316Z,96779.70
2018-07-10T14:25:01.740Z,96777.56
2018-07-10T14:26:37.512Z,96774.75
2018-07-10T14:28:15.637Z,96773.78
2018-07-10T14:29:54.765Z,96769.41
2018-07-10T14:31:32.996Z,96767.33
2018-07-10T14:33:11.273Z,96759.31
2018-07-10T14:34:55.859Z,96763.47
2018-07-10T14:36:39.664Z,96764.75
2018-07-10T14:38:26.782Z,96758.67
2018-07-10T14:40:03.608Z,96759.09
2018-07-10T14:41:39.598Z,96762.67
2018-07-10T14:43:22.029Z,96758.11
2018-07-10T14:45:00.688Z,96756.90
2018-07-10T14:46:38.701Z,96751.58
2018-07-10T14:48:18.976Z,96763.30
2018-07-10T14:49:54.759Z,96747.64
2018-07-10T14:51:43.886Z,96757.97
2018-07-10T14:53:21.889Z,96751.30
2018-07-10T14:56:39.481Z,96743.27
2018-07-10T14:58:22.804Z,96739.68
2018-07-10T14:59:59.570Z,96729.27
2018-07-10T15:01:37.158Z,96727.70
2018-07-10T15:03:27.705Z,96734.33
2018-07-10T15:05:05.749Z,96734.07
2018-07-10T15:06:41.680Z,96732.34
2018-07-10T15:08:23.713Z,96736.04
2018-07-10T15:10:00.410Z,96737.44
2018-07-10T15:11:37.630Z,96740.89
2018-07-10T15:13:13.870Z,96733.47
2018-07-10T15:14:52.327Z,96731.82
2018-07-10T15:16:28.438Z,96729.86
2018-07-10T15:18:10.026Z,96730.39
2018-07-10T15:19:47.761Z,96726.36
2018-07-10T15:21:25.794Z,96724.52
2018-07-10T15:23:06.277Z,96727.11
2018-07-10T15:24:41.853Z,96724.50
2018-07-10T15:26:16.943Z,96720.05
2018-07-10T15:27:53.469Z,96726.34
2018-07-10T15:29:29.826Z,96721.75
2018-07-10T15:31:05.299Z,96721.09
2018-07-10T15:32:41.401Z,96723.27
2018-07-10T15:34:18.251Z,96716.57
2018-07-10T15:35:53.250Z,96715.81
2018-07-10T15:37:33.846Z,96705.19
2018-07-10T15:39:09.468Z,96705.91
2018-07-10T15:40:46.095Z,96699.64
2018-07-10T15:42:21.756Z,96698.77
2018-07-10T15:44:01.154Z,96685.29
2018-07-10T15:45:38.752Z,96683.83
2018-07-10T15:47:16.753Z,96677.98
2018-07-10T15:50:36.263Z,96679.08
2018-07-10T15:52:12.508Z,96676.47
2018-07-10T15:53:52.509Z,96670.93
2018-07-10T15:55:29.696Z,96663.66
2018-07-10T15:57:07.312Z,96663.39
2018-07-10T15:58:44.542Z,96660.57
2018-07-10T16:00:25.079Z,96663.39
2018-07-10T16:02:06.101Z,96658.83
2018-07-10T16:03:46.434Z,96659.29
2018-07-10T16:05:24.845Z,96657.67
2018-07-10T16:07:11.263Z,96653.08
2018-07-10T16:08:57.871Z,96647.50
2018-07-10T16:10:36.705Z,96653.65
2018-07-10T16:12:14.631Z,96652.05
2018-07-10T16:13:56.563Z,96646.63
2018-07-10T16:15:33.937Z,96664.14
2018-07-10T16:17:24.077Z,96651.05
2018-07-10T16:19:08.736Z,96653.42
2018-07-10T16:20:50.004Z,96644.69
2018-07-10T16:23:34.192Z,96643.25
2018-07-10T16:25:14.115Z,96637.75
2018-07-10T16:26:50.328Z,96643.83
2018-07-10T16:28:30.889Z,96633.20
2018-07-10T16:30:09.610Z,96633.95
2018-07-10T16:31:47.199Z,96631.27
2018-07-10T16:33:35.334Z,96626.67
2018-07-10T16:35:11.497Z,96627.66
2018-07-10T16:36:47.982Z,96626.89
2018-07-10T16:38:24.748Z,96638.72
2018-07-10T16:40:00.310Z,96641.03
2018-07-10T16:41:43.208Z,96638.86
2018-07-10T16:43:27.290Z,96644.16
2018-07-10T16:45:06.484Z,96642.88
2018-07-10T16:46:47.498Z,96640.13
2018-07-10T16:49:32.158Z,96638.57
2018-07-10T16:51:17.724Z,96640.59
2018-07-10T16:53:03.591Z,96640.59
2018-07-10T16:54:45.759Z,96639.36
2018-07-10T16:56:23.153Z,96631.73
2018-07-10T16:58:02.370Z,96633.11
2018-07-10T16:59:42.909Z,96644.86
2018-07-10T17:01:19.863Z,96642.44
2018-07-10T17:02:57.710Z,96648.99
2018-07-10T17:04:34.056Z,96656.39
2018-07-10T17:06:11.540Z,96635.53
2018-07-10T17:07:50.591Z,96636.14
2018-07-10T17:09:28.615Z,96627.98
2018-07-10T17:11:04.280Z,96632.06
2018-07-10T17:12:42.429Z,96635.29
2018-07-10T17:14:19.316Z,96632.03
2018-07-10T17:15:55.493Z,96625.91
2018-07-10T17:17:32.380Z,96620.88
2018-07-10T17:19:10.234Z,96623.67
2018-07-10T17:20:49.678Z,96627.28
2018-07-10T17:22:28.682Z,96649.78
2018-07-10T17:24:11.390Z,96615.19
2018-07-10T17:25:49.990Z,96628.95
2018-07-10T17:27:33.318Z,96618.75
2018-07-10T17:29:13.607Z,96626.53
2018-07-10T17:30:48.741Z,96623.28
2018-07-10T17:32:25.326Z,96633.34
2018-07-10T17:34:04.687Z,96646.03
2018-07-10T17:35:43.304Z,96642.82
2018-07-10T17:37:20.899Z,96648.73
2018-07-10T17:40:58.366Z,96636.61
2018-07-10T17:42:38.083Z,96639.09
2018-07-10T17:44:18.585Z,96639.56
2018-07-10T17:45:59.485Z,96635.35
2018-07-10T17:47:37.227Z,96643.96
2018-07-10T17:49:13.555Z,96644.86
2018-07-10T17:50:56.675Z,96648.61
2018-07-10T17:52:38.421Z,96651.27
2018-07-10T17:54:18.221Z,96648.27
2018-07-10T17:56:08.343Z,96646.71
2018-07-10T17:57:55.090Z,96645.45
2018-07-10T17:59:43.185Z,96651.42
2018-07-10T18:01:26.942Z,96654.52
2018-07-10T18:03:09.702Z,96655.92
2018-07-10T18:04:50.229Z,96653.28
2018-07-10T18:06:28.479Z,96651.44
2018-07-10T18:08:23.413Z,96648.80
2018-07-10T18:10:09.828Z,96661.30
2018-07-10T18:12:01.311Z,96652.53
2018-07-10T18:13:40.985Z,96658.22
2018-07-10T18:15:18.743Z,96660.42
2018-07-10T18:16:58.717Z,96664.43
2018-07-10T18:18:38.592Z,96668.88
2018-07-10T18:20:26.550Z,96667.77
2018-07-10T18:22:14.316Z,96667.25
2018-07-10T18:24:01.822Z,96673.22
2018-07-10T18:27:34.895Z,96672.66
2018-07-10T18:29:13.745Z,96661.63
2018-07-10T18:30:51.261Z,96668.19
2018-07-10T18:32:33.404Z,96666.81
2018-07-10T18:34:19.849Z,96671.41
2018-07-10T18:35:58.811Z,96666.37
2018-07-10T18:37:39.063Z,96660.48
2018-07-10T18:39:33.539Z,96662.16
2018-07-10T18:41:16.177Z,96663.91
2018-07-10T18:42:56.591Z,96668.42
2018-07-10T18:44:39.026Z,96666.98
2018-07-10T18:46:21.740Z,96673.50
2018-07-10T18:48:00.490Z,96679.36
2018-07-10T18:49:46.962Z,96675.56
2018-07-10T18:51:31.583Z,96685.94
2018-07-10T18:53:15.291Z,96680.85
2018-07-10T18:54:54.049Z,96686.61
2018-07-10T18:56:41.279Z,96681.16
2018-07-10T18:58:38.326Z,96685.35
2018-07-10T19:00:28.565Z,96687.41
2018-07-10T19:02:18.176Z,96685.59
2018-07-10T19:05:57.941Z,96693.03
2018-07-10T19:07:45.316Z,96693.81
2018-07-10T19:09:38.357Z,96696.72
2018-07-10T19:11:31.291Z,96702.72
2018-07-10T19:13:08.812Z,96702.41
2018-07-10T19:14:46.377Z,96703.23
2018-07-10T19:16:25.813Z,96705.98
2018-07-10T19:18:10.503Z,96702.48
2018-07-10T19:19:50.114Z,96703.40
2018-07-10T19:21:36.709Z,96703.86
2018-07-10T19:23:48.533Z,96712.09
2018-07-10T19:25:30.502Z,96719.11
2018-07-10T19:27:12.311Z,96720.67
2018-07-10T19:28:54.329Z,96720.83
2018-07-10T19:30:41.671Z,96725.25
2018-07-10T19:32:19.064Z,96723.88
2018-07-10T19:33:58.345Z,96736.39
2018-07-10T19:35:42.094Z,96741.39
2018-07-10T19:37:22.805Z,96742.95
2018-07-10T19:39:06.786Z,96742.22
2018-07-10T19:40:53.324Z,96739.02
2018-07-10T19:42:31.456Z,96741.03
2018-07-10T19:44:09.489Z,96731.89
2018-07-10T19:45:46.724Z,96733.11
2018-07-10T19:47:24.940Z,96735.40
2018-07-10T19:49:01.206Z,96736.01
2018-07-10T19:50:42.624Z,96733.27
2018-07-10T19:52:26.278Z,96735.70
2018-07-10T19:54:18.726Z,96740.89
2018-07-10T19:55:57.747Z,96737.41
2018-07-10T19:58:42.782Z,96744.11
2018-07-10T20:00:27.405Z,96737.86
2018-07-10T20:02:05.925Z,96738.02
2018-07-10T20:03:50.108Z,96739.72
2018-07-10T20:05:57.744Z,96742.60
2018-07-10T20:07:43.471Z,96750.21
2018-07-10T20:09:53.286Z,96755.69
2018-07-10T20:11:43.016Z,96751.44
2018-07-10T20:17:54.061Z,96762.84
2018-07-10T20:19:52.173Z,96761.48
2018-07-10T20:21:39.882Z,96759.34
2018-07-10T20:23:25.342Z,96762.08
2018-07-10T20:25:11.259Z,96760.69
2018-07-10T20:30:54.695Z,96780.12
2018-07-10T20:32:41.217Z,96779.94